CheckWX is a tool to help pilots better visualize weather data.  It is not intended as a substitute for an official pre-flight weather briefing.

05:15:01 UTC

LLBG TAF
Ben Gurion International Airport
Tel Aviv, Israel
TAF LLBG 232315Z 2400/2424 VRB03KT CAVOK BECMG 2407/2409 29008KT BECMG 2415/2417 01005KT TX21/2412Z TN07/2403Z

Feb-24@
00:00 UTC

Feb-24 @ 00:00 UTC

Feb-24@
07:00 UTC

Feb-24 @ 07:00 UTC

TAF LLBG 232315Z 2400/2424 VRB03KT CAVOK
Wind
  • Variable at 3 KTS
Conditions
No significant weather
Cloud Levels
  • No significant clouds

Feb-24@
07:00 UTC

Feb-24 @ 07:00 UTC

Feb-24@
15:00 UTC

Feb-24 @ 15:00 UTC

BECMG 2407/2409 29008KT

Becoming

Becoming Conditions expected by Sun, Feb 24, 2019 @ 09:00 UTC

Wind
  • 290° at 8 KTS
Conditions
No significant weather
Cloud Levels
  • No significant clouds

Feb-24@
15:00 UTC

Feb-24 @ 15:00 UTC

Feb-25@
00:00 UTC

Feb-25 @ 00:00 UTC

BECMG 2415/2417 01005KT TX21/2412Z TN07/2403Z

Becoming

Becoming Conditions expected by Sun, Feb 24, 2019 @ 17:00 UTC

Wind
  • 010° at 5 KTS
Conditions
No significant weather
Cloud Levels
  • No significant clouds